Clemson, South Carolina
Current Conditions -  °F | °C
As of 3:54 PM on Saturday 20 Dec 2014 (Local Time) from KCEU Reporting Station
Overcast Overcast  
Wind Chill: 43°   Ceiling: 700
Heat Index: 45°   Visibility: 7mi
Dew Point: 40°   Wind: 5mph
Humidity: 82%   Direction: 80°E
Pressure: 30.19"   Gusts: NA
Location:  34.68°N, 82.84°W
Report Text: KCEU 202054Z AUTO 08004KT 7SM BKN007 OVC013 07/04 A3019 RMK AO2 RAB03E13B39E51 CIG 006V010 SLP224 P0000 60000 T00720044 55007
Loading
Personal Weather Stations






























Interactive Weather Map New forecast layout! Learn more

10-Day Weather Forecast

Advertisements
Track Severe Weather on mobile